Time;durP1;ratioP1;P1;durP2;ratioP2;P2;SDS_P1;SDS_P2;PMS_P1;PMS_P2;Temp;Humidity;BMP_temperature;BMP_pressure;BME280_temperature;BME280_humidity;BME280_pressure;Samples;Min_cycle;Max_cycle;Signal;HPM_P1;HPM_P2
2022/07/10 00:00:09;;;;;;;5.50;1.90;;;17.00;99.90;;;;;;5077188;28;20051;-83
2022/07/10 00:02:41;;;;;;;3.17;2.00;;;16.90;99.90;;;;;;5077686;28;20040;-84
2022/07/10 00:05:09;;;;;;;2.50;1.90;;;16.90;99.90;;;;;;5077603;28;20028;-83
2022/07/10 00:07:34;;;;;;;2.67;1.70;;;16.90;99.90;;;;;;5076996;28;20020;-84
2022/07/10 00:10:01;;;;;;;4.55;1.88;;;16.90;99.90;;;;;;5076861;28;20080;-83
2022/07/10 00:12:27;;;;;;;2.88;2.08;;;16.80;99.90;;;;;;5072243;28;20065;-83
2022/07/10 00:14:53;;;;;;;4.30;2.20;;;16.80;99.90;;;;;;5057001;28;20060;-81
2022/07/10 00:17:18;;;;;;;7.22;2.33;;;16.80;99.90;;;;;;5056195;28;20376;-82
2022/07/10 00:19:44;;;;;;;3.67;2.00;;;16.70;99.90;;;;;;5056138;28;20056;-82
2022/07/10 00:22:10;;;;;;;3.50;2.22;;;16.70;99.90;;;;;;5054455;28;20365;-82
2022/07/10 00:24:36;;;;;;;3.53;2.00;;;16.70;99.90;;;;;;5055883;28;20061;-82
2022/07/10 00:27:01;;;;;;;2.70;2.08;;;16.70;99.90;;;;;;5056878;28;20079;-82
2022/07/10 00:29:27;;;;;;;3.33;2.00;;;16.60;99.90;;;;;;5060370;28;20037;-84
2022/07/10 00:31:53;;;;;;;4.22;2.38;;;16.60;99.90;;;;;;5065951;28;20508;-82
2022/07/10 00:34:19;;;;;;;5.85;2.05;;;16.60;99.90;;;;;;5068550;28;20060;-80
2022/07/10 00:36:44;;;;;;;2.83;2.30;;;16.60;99.90;;;;;;5071820;28;20051;-82
2022/07/10 00:39:10;;;;;;;4.55;2.13;;;16.60;99.90;;;;;;5072509;28;20025;-81
2022/07/10 00:41:37;;;;;;;4.90;2.38;;;16.60;99.90;;;;;;5072288;28;20365;-82
2022/07/10 00:44:03;;;;;;;3.05;2.10;;;16.60;99.90;;;;;;5048612;28;20127;-83
2022/07/10 00:46:32;;;;;;;6.80;2.45;;;16.50;99.90;;;;;;5065735;28;20021;-82
2022/07/10 00:48:58;;;;;;;3.67;2.30;;;16.50;99.90;;;;;;5063753;28;20493;-81
2022/07/10 00:51:27;;;;;;;5.20;2.25;;;16.50;99.90;;;;;;5064113;28;20025;-81
2022/07/10 00:53:54;;;;;;;4.38;2.28;;;16.50;99.90;;;;;;5064996;28;20036;-81
2022/07/10 00:56:25;;;;;;;5.22;2.20;;;16.50;99.90;;;;;;5065014;28;20121;-83
2022/07/10 00:58:51;;;;;;;5.07;2.50;;;16.40;99.90;;;;;;5063993;28;20087;-80
2022/07/10 01:01:18;;;;;;;2.72;2.10;;;16.40;99.90;;;;;;5064532;28;20025;-79
2022/07/10 01:03:47;;;;;;;4.95;2.55;;;16.40;99.90;;;;;;5064024;28;20456;-82
2022/07/10 01:06:14;;;;;;;2.72;2.40;;;16.40;99.90;;;;;;5062426;28;20029;-81
2022/07/10 01:08:41;;;;;;;4.45;2.20;;;16.40;99.90;;;;;;5065179;28;20399;-80
2022/07/10 01:11:08;;;;;;;4.25;2.60;;;16.30;99.90;;;;;;5064494;28;20025;-83
2022/07/10 01:13:34;;;;;;;2.88;2.38;;;16.30;99.90;;;;;;5063429;28;20033;-82
2022/07/10 01:16:00;;;;;;;4.32;2.30;;;16.40;99.90;;;;;;5062044;28;20056;-83
2022/07/10 01:18:26;;;;;;;1.98;1.77;;;16.30;99.90;;;;;;5065480;28;20455;-83
2022/07/10 01:20:55;;;;;;;3.70;2.45;;;16.30;99.90;;;;;;5066714;28;20032;-83
2022/07/10 01:23:22;;;;;;;3.88;2.45;;;16.30;99.90;;;;;;5062065;28;20035;-83
2022/07/10 01:25:49;;;;;;;4.05;2.42;;;16.30;99.90;;;;;;5062601;28;20079;-83
2022/07/10 01:28:16;;;;;;;2.72;2.35;;;16.30;99.90;;;;;;5061099;28;20039;-82
2022/07/10 01:30:42;;;;;;;2.92;2.40;;;16.30;99.90;;;;;;5061644;28;20021;-81
2022/07/10 01:33:08;;;;;;;4.75;2.80;;;16.30;99.90;;;;;;5058937;28;20029;-82
2022/07/10 01:35:34;;;;;;;2.53;2.30;;;16.30;99.90;;;;;;5070083;28;20039;-83
2022/07/10 01:38:00;;;;;;;7.45;2.92;;;16.20;99.90;;;;;;5075441;28;20029;-81
2022/07/10 01:40:26;;;;;;;5.95;2.67;;;16.20;99.90;;;;;;5076421;28;20036;-81
2022/07/10 01:42:51;;;;;;;5.03;2.90;;;16.10;99.90;;;;;;5077840;28;20036;-82
2022/07/10 01:45:20;;;;;;;4.53;2.50;;;16.20;99.90;;;;;;5077639;28;20040;-83
2022/07/10 01:47:46;;;;;;;3.90;2.60;;;16.20;99.90;;;;;;5076563;28;20108;-82
2022/07/10 01:50:12;;;;;;;3.05;2.20;;;16.20;99.90;;;;;;5082829;22;20037;-85
2022/07/10 01:52:38;;;;;;;5.93;2.50;;;16.20;99.90;;;;;;5022596;28;20037;-86
2022/07/10 01:55:05;;;;;;;4.30;2.28;;;16.20;99.90;;;;;;5057073;28;20016;-87
2022/07/10 01:57:31;;;;;;;6.13;2.63;;;16.30;99.90;;;;;;5039698;28;20033;-86
2022/07/10 01:59:57;;;;;;;3.80;2.55;;;16.30;99.90;;;;;;5056617;28;20075;-87
2022/07/10 02:02:23;;;;;;;3.95;2.50;;;16.30;99.90;;;;;;5038452;28;20038;-87
2022/07/10 02:04:49;;;;;;;3.90;2.22;;;16.30;99.90;;;;;;5037345;28;20025;-88
2022/07/10 02:07:18;;;;;;;4.53;2.50;;;16.30;99.90;;;;;;5055354;28;20063;-86
2022/07/10 02:09:46;;;;;;;3.30;2.30;;;16.40;99.90;;;;;;5054380;28;20020;-87
2022/07/10 02:12:14;;;;;;;5.82;2.25;;;16.40;99.90;;;;;;5036520;28;20057;-87
2022/07/10 02:14:41;;;;;;;3.75;2.30;;;16.40;99.90;;;;;;5020955;28;20017;-87
2022/07/10 02:17:08;;;;;;;7.90;2.55;;;16.40;99.90;;;;;;5053749;28;20167;-85
2022/07/10 02:19:34;;;;;;;3.65;2.22;;;16.50;99.90;;;;;;5019489;28;20013;-85
2022/07/10 02:22:00;;;;;;;3.30;2.50;;;16.50;99.90;;;;;;5035029;28;20033;-87
2022/07/10 02:24:26;;;;;;;3.53;2.40;;;16.40;99.90;;;;;;5050488;28;20029;-88
2022/07/10 02:26:54;;;;;;;4.25;2.47;;;16.40;99.90;;;;;;5016777;28;20063;-86
2022/07/10 02:29:23;;;;;;;3.80;2.15;;;16.40;99.90;;;;;;5034468;28;20021;-86
2022/07/10 02:31:49;;;;;;;5.05;2.90;;;16.40;99.90;;;;;;5051076;28;20044;-87
2022/07/10 02:34:15;;;;;;;2.53;2.10;;;16.30;99.90;;;;;;5033789;28;20030;-86
2022/07/10 02:36:41;;;;;;;7.57;2.10;;;16.30;99.90;;;;;;5021214;28;20045;-86
2022/07/10 02:39:07;;;;;;;2.55;2.35;;;16.30;99.90;;;;;;5055011;28;20032;-87
2022/07/10 02:41:35;;;;;;;5.63;2.10;;;16.20;99.90;;;;;;5017847;28;20041;-86
2022/07/10 02:44:02;;;;;;;5.05;2.40;;;16.20;99.90;;;;;;5035206;28;20041;-86
2022/07/10 02:46:27;;;;;;;3.65;2.22;;;16.20;99.90;;;;;;5035630;28;20021;-85
2022/07/10 02:48:53;;;;;;;2.83;2.10;;;16.20;99.90;;;;;;5034743;28;20060;-87
2022/07/10 02:51:19;;;;;;;6.90;1.83;;;16.20;99.90;;;;;;5035836;28;20025;-87
2022/07/10 02:53:45;;;;;;;5.15;2.15;;;16.20;99.90;;;;;;5033500;28;20440;-88
2022/07/10 02:56:11;;;;;;;3.83;2.30;;;16.10;99.90;;;;;;5031396;28;20033;-87
2022/07/10 02:58:38;;;;;;;4.95;2.40;;;16.10;99.90;;;;;;5032678;28;20478;-88
2022/07/10 03:01:04;;;;;;;7.60;2.25;;;16.20;99.90;;;;;;5015960;28;20036;-86
2022/07/10 03:03:29;;;;;;;6.60;2.30;;;16.20;99.90;;;;;;5054673;28;20355;-87
2022/07/10 03:05:55;;;;;;;3.65;2.25;;;16.20;99.90;;;;;;5038152;28;20061;-88
2022/07/10 03:08:21;;;;;;;8.93;2.53;;;16.10;99.90;;;;;;5051245;28;20420;-88
2022/07/10 03:10:47;;;;;;;3.22;2.00;;;16.20;99.90;;;;;;5030899;28;20056;-86
2022/07/10 03:13:13;;;;;;;2.88;2.28;;;16.20;99.90;;;;;;5029567;28;20032;-86
2022/07/10 03:15:38;;;;;;;9.13;2.03;;;16.20;99.90;;;;;;5044152;28;20041;-89
2022/07/10 03:18:04;;;;;;;6.88;2.10;;;16.20;99.90;;;;;;5046871;28;20025;-89
2022/07/10 03:20:30;;;;;;;8.90;2.70;;;16.20;99.90;;;;;;5011311;28;20045;-87
2022/07/10 03:22:56;;;;;;;3.08;2.10;;;16.20;99.90;;;;;;5045699;28;20517;-87
2022/07/10 03:25:22;;;;;;;5.18;2.33;;;16.20;99.90;;;;;;5029133;28;20075;-86
2022/07/10 03:27:47;;;;;;;3.72;2.25;;;16.20;99.90;;;;;;5031513;28;20083;-88
2022/07/10 03:30:13;;;;;;;3.97;2.08;;;16.30;99.90;;;;;;5049150;28;20108;-89
2022/07/10 03:32:39;;;;;;;3.13;2.25;;;16.30;99.90;;;;;;5016655;28;20029;-88
2022/07/10 03:35:05;;;;;;;5.53;2.53;;;16.30;99.90;;;;;;5036347;28;20091;-88
2022/07/10 03:37:31;;;;;;;5.68;2.35;;;16.30;99.90;;;;;;5052652;28;20039;-86
2022/07/10 03:39:57;;;;;;;2.80;2.00;;;16.40;99.90;;;;;;5051722;28;20049;-87
2022/07/10 03:42:23;;;;;;;5.40;2.20;;;16.40;99.90;;;;;;5034069;28;20021;-87
2022/07/10 03:44:49;;;;;;;4.20;2.40;;;16.40;99.90;;;;;;5035107;28;20044;-87
2022/07/10 03:47:14;;;;;;;4.60;2.40;;;16.50;99.90;;;;;;5036700;28;20022;-86
2022/07/10 03:49:42;;;;;;;5.20;2.45;;;16.50;99.90;;;;;;5050483;28;20064;-87
2022/07/10 03:52:08;;;;;;;4.53;2.13;;;16.50;99.90;;;;;;5032143;28;20021;-87
2022/07/10 03:54:34;;;;;;;2.97;1.88;;;16.60;99.90;;;;;;5032936;28;20093;-88
2022/07/10 03:59:44;;;;;;;3.97;2.20;;;16.60;99.90;;;;;;5052485;28;20040;-88
2022/07/10 04:02:11;;;;;;;5.50;2.40;;;16.60;99.90;;;;;;5036420;28;20033;-86
2022/07/10 04:04:37;;;;;;;7.07;2.67;;;16.50;99.90;;;;;;5050546;28;20080;-86
2022/07/10 04:07:04;;;;;;;3.00;2.13;;;16.50;99.90;;;;;;5048977;28;20025;-87
2022/07/10 04:09:30;;;;;;;4.53;2.42;;;16.50;99.90;;;;;;5031462;28;20036;-89
2022/07/10 04:11:56;;;;;;;5.32;2.83;;;16.50;99.90;;;;;;5031188;28;20058;-86
2022/07/10 04:14:22;;;;;;;3.17;2.00;;;16.50;99.90;;;;;;5014532;28;20037;-89
2022/07/10 04:16:48;;;;;;;2.63;2.28;;;16.60;99.90;;;;;;5014660;28;20082;-87
2022/07/10 04:19:14;;;;;;;3.85;2.42;;;16.60;99.90;;;;;;5030930;28;20033;-87
2022/07/10 04:21:40;;;;;;;3.53;2.50;;;16.70;99.90;;;;;;5031316;28;20125;-86
2022/07/10 04:24:05;;;;;;;2.78;2.15;;;16.70;99.90;;;;;;5030566;28;20065;-87
2022/07/10 04:26:31;;;;;;;5.97;2.30;;;16.70;99.90;;;;;;5031048;28;20105;-86
2022/07/10 04:28:57;;;;;;;3.95;2.13;;;16.70;99.90;;;;;;5053936;28;20025;-88
2022/07/10 04:31:23;;;;;;;3.13;2.65;;;16.80;99.90;;;;;;5051163;28;20021;-88
2022/07/10 04:33:49;;;;;;;8.30;2.35;;;16.90;99.90;;;;;;5034309;28;20037;-88
2022/07/10 04:36:16;;;;;;;5.53;2.50;;;17.00;99.90;;;;;;5037214;28;20033;-89
2022/07/10 04:38:42;;;;;;;5.15;2.30;;;17.10;99.90;;;;;;5026188;28;20049;-86
2022/07/10 04:41:08;;;;;;;5.13;2.35;;;17.10;99.90;;;;;;5026957;28;20037;-86
2022/07/10 04:43:33;;;;;;;2.78;2.15;;;17.20;99.90;;;;;;5026271;28;20087;-87
2022/07/10 04:45:59;;;;;;;4.07;2.50;;;17.20;99.90;;;;;;5043006;28;20018;-88
2022/07/10 04:48:25;;;;;;;5.18;2.20;;;17.30;99.90;;;;;;5025826;28;20014;-86
2022/07/10 04:50:51;;;;;;;6.00;2.08;;;17.30;99.90;;;;;;5038200;28;20086;-89
2022/07/10 04:53:17;;;;;;;4.43;2.13;;;17.30;99.90;;;;;;5035001;28;20088;-89
2022/07/10 04:55:43;;;;;;;4.07;2.00;;;17.40;99.90;;;;;;5035046;28;20081;-88
2022/07/10 04:58:09;;;;;;;6.28;2.05;;;17.40;99.90;;;;;;5016921;28;20064;-87
2022/07/10 05:00:35;;;;;;;3.47;2.05;;;17.50;99.90;;;;;;5048565;28;20017;-89
2022/07/10 05:03:03;;;;;;;4.25;2.42;;;17.50;99.90;;;;;;5031859;28;20030;-87
2022/07/10 05:05:29;;;;;;;3.40;2.00;;;17.60;99.90;;;;;;5050040;28;20032;-88
2022/07/10 05:07:55;;;;;;;3.45;2.00;;;17.60;99.90;;;;;;5038357;28;20108;-89
2022/07/10 05:10:21;;;;;;;3.13;2.33;;;17.70;99.90;;;;;;5058930;28;20013;-86
2022/07/10 05:12:47;;;;;;;9.13;2.65;;;17.80;99.90;;;;;;5026977;28;20041;-88
2022/07/10 05:15:12;;;;;;;2.83;2.00;;;17.90;99.90;;;;;;5026793;28;20025;-87
2022/07/10 05:17:38;;;;;;;4.07;2.10;;;18.00;99.90;;;;;;5060523;28;20033;-88
2022/07/10 05:20:05;;;;;;;5.25;2.30;;;18.10;99.90;;;;;;5043153;28;20017;-87
2022/07/10 05:22:31;;;;;;;3.88;1.85;;;18.20;99.90;;;;;;5027007;28;20030;-86
2022/07/10 05:24:57;;;;;;;4.30;2.08;;;18.20;99.90;;;;;;5027292;28;20021;-88
2022/07/10 05:27:36;;;;;;;6.93;1.98;;;18.20;99.90;;;;;;5043613;28;20018;-86
2022/07/10 05:30:02;;;;;;;2.72;2.22;;;18.20;99.90;;;;;;5042349;28;20029;-88
2022/07/10 05:32:28;;;;;;;7.97;2.40;;;18.20;99.90;;;;;;5026866;28;20214;-86
2022/07/10 05:34:56;;;;;;;7.50;2.58;;;18.20;99.90;;;;;;5026702;28;20037;-87
2022/07/10 05:37:22;;;;;;;3.28;2.15;;;18.20;99.90;;;;;;5042503;28;20048;-87
2022/07/10 05:39:48;;;;;;;3.20;2.30;;;18.30;99.90;;;;;;5059370;28;20033;-85
2022/07/10 05:42:14;;;;;;;4.30;1.83;;;18.20;99.90;;;;;;5042865;28;20027;-87
2022/07/10 05:44:47;;;;;;;6.93;2.10;;;18.20;99.90;;;;;;5042910;28;20044;-86
2022/07/10 05:50:18;;;;;;;5.30;2.30;;;18.10;99.90;;;;;;5041558;28;20049;-87
2022/07/10 05:52:44;;;;;;;11.95;2.95;;;18.20;99.90;;;;;;5026428;28;20045;-86
2022/07/10 05:55:11;;;;;;;6.65;2.40;;;18.20;99.90;;;;;;5025403;28;20051;-87
2022/07/10 05:57:40;;;;;;;5.07;2.53;;;18.20;99.90;;;;;;5024588;28;20030;-87
2022/07/10 06:00:09;;;;;;;5.20;2.35;;;18.30;99.90;;;;;;5025678;28;20021;-87
2022/07/10 06:02:40;;;;;;;4.47;2.50;;;18.20;99.90;;;;;;5026218;28;20059;-86
2022/07/10 06:05:09;;;;;;;5.05;2.45;;;18.10;99.90;;;;;;5042602;28;20021;-87
2022/07/10 06:07:41;;;;;;;7.13;2.53;;;18.10;99.90;;;;;;5042047;28;20217;-86
2022/07/10 06:10:08;;;;;;;2.50;2.20;;;18.00;99.90;;;;;;5025514;28;20052;-86
2022/07/10 06:12:34;;;;;;;5.80;2.10;;;18.10;99.90;;;;;;5025894;28;20052;-87
2022/07/10 06:15:03;;;;;;;6.95;2.78;;;18.00;99.90;;;;;;5025509;28;20033;-88
2022/07/10 06:17:29;;;;;;;6.53;2.92;;;18.00;99.90;;;;;;5025106;28;20025;-87
2022/07/10 06:19:55;;;;;;;3.90;2.78;;;17.90;99.90;;;;;;5025386;28;20049;-87
2022/07/10 06:22:30;;;;;;;6.30;2.97;;;17.90;99.90;;;;;;5025426;28;20049;-87
2022/07/10 06:25:00;;;;;;;5.18;2.40;;;17.90;99.90;;;;;;5059450;28;20017;-87
2022/07/10 06:27:27;;;;;;;7.65;2.83;;;17.90;99.90;;;;;;5025794;28;20026;-87
2022/07/10 06:29:56;;;;;;;6.85;2.42;;;17.90;99.90;;;;;;5025215;28;20013;-88
2022/07/10 06:32:26;;;;;;;8.90;2.72;;;18.00;99.90;;;;;;5025470;28;20023;-86
2022/07/10 06:34:54;;;;;;;4.30;2.35;;;18.10;99.90;;;;;;5025347;28;20022;-87
2022/07/10 06:37:21;;;;;;;5.85;2.25;;;18.20;99.90;;;;;;5025163;28;20037;-86
2022/07/10 06:39:51;;;;;;;4.03;2.03;;;18.40;99.90;;;;;;5024484;28;20026;-85
2022/07/10 06:42:18;;;;;;;5.30;2.15;;;18.50;99.90;;;;;;5021194;28;20037;-86
2022/07/10 06:44:48;;;;;;;5.65;2.60;;;18.70;99.90;;;;;;5020423;28;20093;-87
2022/07/10 06:50:12;;;;;;;5.38;2.22;;;19.10;99.90;;;;;;5032588;28;20034;-87
2022/07/10 06:52:41;;;;;;;4.22;2.13;;;19.40;99.90;;;;;;5019197;28;20652;-88
2022/07/10 06:55:07;;;;;;;4.97;2.00;;;19.80;99.90;;;;;;5021690;28;20097;-86
2022/07/10 06:57:33;;;;;;;8.80;2.28;;;20.30;99.90;;;;;;5022844;28;20060;-87
2022/07/10 06:59:59;;;;;;;4.95;2.35;;;20.60;99.90;;;;;;5055391;28;20099;-87
2022/07/10 07:02:25;;;;;;;9.38;2.30;;;20.80;99.90;;;;;;5056386;28;20132;-89
2022/07/10 07:04:51;;;;;;;6.50;2.00;;;20.90;99.90;;;;;;5020047;28;20036;-86
2022/07/10 07:07:17;;;;;;;2.03;1.60;;;20.90;99.90;;;;;;5034999;28;20108;-88
2022/07/10 07:09:43;;;;;;;3.03;1.83;;;20.60;99.90;;;;;;5017962;28;20056;-87
2022/07/10 07:12:09;;;;;;;3.35;1.70;;;20.10;99.90;;;;;;5018901;28;20076;-89
2022/07/10 07:14:35;;;;;;;5.53;1.55;;;19.70;99.90;;;;;;5019085;28;20040;-87
2022/07/10 07:17:09;;;;;;;4.78;2.35;;;19.50;99.90;;;;;;5034883;28;20022;-87
2022/07/10 07:25:06;;;;;;;5.38;2.38;;;19.50;99.90;;;;;;5058139;28;19920;-87
2022/07/10 07:27:34;;;;;;;4.93;2.20;;;19.50;99.90;;;;;;5058233;28;20021;-87
2022/07/10 07:30:08;;;;;;;4.13;1.85;;;19.50;99.90;;;;;;5055790;28;20095;-89
2022/07/10 07:32:50;;;;;;;5.63;2.10;;;19.50;99.90;;;;;;5033669;28;20010;-89
2022/07/10 07:35:16;;;;;;;2.72;1.70;;;19.50;99.90;;;;;;5032039;28;20018;-88
2022/07/10 07:38:15;;;;;;;3.30;2.00;;;19.30;99.90;;;;;;5050146;28;20071;-88
2022/07/10 07:40:44;;;;;;;2.90;1.85;;;19.20;99.90;;;;;;5017627;28;20578;-88
2022/07/10 07:43:13;;;;;;;4.28;2.47;;;19.20;99.90;;;;;;5034215;28;20022;-90
2022/07/10 07:45:41;;;;;;;5.95;2.17;;;19.10;99.90;;;;;;5031992;28;20030;-89
2022/07/10 07:48:09;;;;;;;3.03;1.65;;;19.00;99.90;;;;;;5027673;28;20367;-89
2022/07/10 07:50:38;;;;;;;4.82;2.05;;;18.80;99.90;;;;;;5071471;23;20063;-81
2022/07/10 07:53:05;;;;;;;7.40;2.00;;;18.60;99.90;;;;;;5056261;28;20029;-83
2022/07/10 07:55:32;;;;;;;4.00;1.88;;;18.50;99.90;;;;;;5056053;28;20044;-81
2022/07/10 07:57:59;;;;;;;4.18;1.85;;;18.40;99.90;;;;;;5057916;28;20021;-81
2022/07/10 08:00:26;;;;;;;4.82;2.00;;;18.30;99.90;;;;;;5038806;28;20025;-82
2022/07/10 08:02:54;;;;;;;4.97;1.90;;;18.20;99.90;;;;;;5062118;28;20473;-82
2022/07/10 08:05:20;;;;;;;4.25;2.30;;;18.20;99.90;;;;;;5060452;28;20025;-83
2022/07/10 08:07:49;;;;;;;6.28;2.25;;;18.10;99.90;;;;;;5062433;28;20060;-82
2022/07/10 08:10:18;;;;;;;5.95;2.47;;;17.90;99.90;;;;;;5059469;28;20078;-82
2022/07/10 08:12:48;;;;;;;7.70;2.60;;;17.70;99.90;;;;;;5062965;28;20087;-80
2022/07/10 08:15:15;;;;;;;5.88;3.03;;;17.60;99.90;;;;;;5059905;28;20041;-81
2022/07/10 08:17:42;;;;;;;9.15;2.40;;;17.50;99.90;;;;;;5058670;28;20020;-81
2022/07/10 08:20:11;;;;;;;6.90;2.58;;;17.40;99.90;;;;;;5059158;28;20079;-82
2022/07/10 08:22:36;;;;;;;3.67;2.25;;;17.40;99.90;;;;;;5063364;28;20032;-81
2022/07/10 08:25:03;;;;;;;3.95;2.55;;;17.30;99.90;;;;;;5061668;28;20017;-81
2022/07/10 08:27:28;;;;;;;6.40;2.53;;;17.40;99.90;;;;;;5060224;28;20028;-82
2022/07/10 08:29:55;;;;;;;4.18;1.88;;;17.40;99.90;;;;;;5067511;28;20053;-83
2022/07/10 08:32:20;;;;;;;2.65;1.50;;;17.40;99.90;;;;;;5064386;28;20028;-80
2022/07/10 08:34:47;;;;;;;3.28;1.63;;;17.40;99.90;;;;;;5072518;28;20044;-79
2022/07/10 08:37:13;;;;;;;4.47;1.55;;;17.40;99.90;;;;;;5066502;28;20025;-82
2022/07/10 08:39:39;;;;;;;5.80;1.70;;;17.40;99.90;;;;;;5060242;28;20028;-81
2022/07/10 08:42:07;;;;;;;2.83;1.58;;;17.50;99.90;;;;;;5060505;28;20031;-81
2022/07/10 08:44:34;;;;;;;3.38;1.30;;;17.70;99.90;;;;;;5060608;28;20025;-83
2022/07/10 08:47:01;;;;;;;8.93;1.35;;;17.70;99.90;;;;;;5060215;28;20032;-81
2022/07/10 08:49:30;;;;;;;6.57;1.65;;;17.90;99.90;;;;;;5057802;28;20447;-80
2022/07/10 08:52:05;;;;;;;7.97;1.90;;;18.20;99.90;;;;;;5059551;28;20024;-81
2022/07/10 08:54:33;;;;;;;3.65;1.20;;;18.10;99.90;;;;;;5058974;28;20033;-82
2022/07/10 08:57:00;;;;;;;4.78;1.48;;;17.90;99.90;;;;;;5059811;28;20040;-81
2022/07/10 08:59:28;;;;;;;4.00;1.30;;;18.00;99.90;;;;;;5065358;28;20047;-81
2022/07/10 09:01:54;;;;;;;3.83;1.30;;;18.20;99.90;;;;;;5071739;28;20025;-81
2022/07/10 09:04:25;;;;;;;6.28;2.25;;;18.30;99.90;;;;;;5074843;28;20033;-81
2022/07/10 09:06:52;;;;;;;2.42;1.42;;;18.40;99.90;;;;;;5074421;28;20025;-80
2022/07/10 09:09:19;;;;;;;2.00;1.35;;;18.80;99.90;;;;;;5074666;28;20017;-80
2022/07/10 09:11:46;;;;;;;8.30;1.65;;;19.20;99.90;;;;;;5071643;28;20055;-83
2022/07/10 09:14:16;;;;;;;3.47;1.50;;;19.40;99.90;;;;;;5062982;28;20025;-81
2022/07/10 09:16:45;;;;;;;5.05;1.70;;;19.60;99.90;;;;;;5061330;28;20400;-81
2022/07/10 09:19:20;;;;;;;4.75;1.92;;;19.90;99.90;;;;;;5043249;28;20029;-82
2022/07/10 09:21:48;;;;;;;2.95;1.58;;;19.80;99.90;;;;;;5060946;28;20036;-81
2022/07/10 09:24:14;;;;;;;3.00;1.45;;;19.70;99.90;;;;;;5045679;28;20025;-82
2022/07/10 09:26:42;;;;;;;5.32;1.75;;;19.40;99.90;;;;;;5064420;28;20021;-81
2022/07/10 09:29:10;;;;;;;6.22;1.85;;;19.20;99.90;;;;;;5060771;28;20025;-83
2022/07/10 09:31:51;;;;;;;7.22;1.70;;;19.10;99.90;;;;;;5066265;28;20036;-81
2022/07/10 09:34:17;;;;;;;6.20;1.70;;;19.10;99.90;;;;;;5068759;28;20029;-80
2022/07/10 09:36:44;;;;;;;3.22;1.60;;;19.30;99.90;;;;;;5068892;28;20021;-81
2022/07/10 09:39:09;;;;;;;6.40;1.70;;;19.20;99.90;;;;;;5069558;28;20093;-81
2022/07/10 09:41:35;;;;;;;7.85;1.80;;;19.40;99.90;;;;;;5068052;28;20051;-81
2022/07/10 09:44:07;;;;;;;3.80;1.63;;;19.60;99.90;;;;;;5070556;28;20072;-81
2022/07/10 09:46:38;;;;;;;6.60;1.45;;;20.00;99.90;;;;;;5069466;28;20025;-80
2022/07/10 09:49:13;;;;;;;3.60;1.70;;;20.50;99.90;;;;;;5068165;28;20017;-79
2022/07/10 09:51:45;;;;;;;8.75;1.92;;;20.50;99.90;;;;;;5065976;28;20037;-80
2022/07/10 09:54:11;;;;;;;7.13;1.67;;;20.60;99.90;;;;;;5060477;28;20051;-84
2022/07/10 09:56:46;;;;;;;2.58;1.45;;;20.80;99.90;;;;;;5059712;28;20074;-82
2022/07/10 09:59:13;;;;;;;;;;;21.20;99.90;;;;;;5060873;28;20063;-83
2022/07/10 10:01:46;;;;;;;5.05;1.70;;;21.30;99.90;;;;;;5061154;28;20392;-83
2022/07/10 10:04:21;;;;;;;6.65;1.73;;;21.30;99.90;;;;;;5058095;28;20096;-82
2022/07/10 10:06:51;;;;;;;5.22;1.75;;;21.50;99.90;;;;;;5061201;28;20075;-81
2022/07/10 10:09:29;;;;;;;8.45;1.95;;;21.50;99.90;;;;;;5059677;28;20025;-82
2022/07/10 10:12:02;;;;;;;7.38;2.00;;;21.40;99.90;;;;;;5065351;28;20028;-81
2022/07/10 10:14:29;;;;;;;5.50;1.80;;;21.30;99.90;;;;;;5059245;28;20114;-82
2022/07/10 10:16:56;;;;;;;7.85;2.22;;;21.40;99.90;;;;;;5059137;28;20021;-82
2022/07/10 10:22:13;;;;;;;6.07;1.50;;;21.90;99.90;;;;;;5057379;28;20029;-82
2022/07/10 10:24:41;;;;;;;6.35;2.08;;;23.10;99.90;;;;;;5058896;28;20029;-81
2022/07/10 10:27:08;;;;;;;7.65;1.90;;;24.20;98.70;;;;;;5060210;28;20086;-82
2022/07/10 10:29:37;;;;;;;2.13;1.38;;;25.20;96.50;;;;;;5059215;28;20456;-82
2022/07/10 10:32:03;;;;;;;3.80;1.35;;;26.20;95.10;;;;;;5059386;28;20489;-82
2022/07/10 10:34:42;;;;;;;3.63;1.40;;;27.70;93.20;;;;;;5057762;28;20036;-82
2022/07/10 10:37:26;;;;;;;3.88;1.30;;;29.20;90.60;;;;;;5059554;28;20056;-82
2022/07/10 10:39:56;;;;;;;3.85;1.73;;;29.00;87.70;;;;;;5057639;28;20063;-83
2022/07/10 10:42:55;;;;;;;3.80;1.60;;;28.30;85.90;;;;;;5057430;28;20070;-81
2022/07/10 10:45:29;;;;;;;6.88;1.95;;;27.30;85.90;;;;;;5051994;28;20418;-81
2022/07/10 10:48:10;;;;;;;8.93;1.80;;;26.90;86.60;;;;;;5066769;28;20036;-81
2022/07/10 10:50:59;;;;;;;6.60;2.00;;;26.50;85.20;;;;;;5061696;28;20040;-82
2022/07/10 10:53:26;;;;;;;5.72;1.65;;;25.90;87.00;;;;;;5060527;28;20036;-83
2022/07/10 10:56:07;;;;;;;5.80;1.85;;;25.60;87.60;;;;;;5068015;28;20104;-83
2022/07/10 10:58:41;;;;;;;4.40;1.73;;;25.40;87.90;;;;;;5068429;28;20051;-82
2022/07/10 11:01:25;;;;;;;3.13;1.30;;;26.20;87.10;;;;;;5056669;28;20033;-82
2022/07/10 11:04:12;;;;;;;2.72;1.50;;;26.80;85.00;;;;;;5057320;28;20033;-82
2022/07/10 11:06:53;;;;;;;4.47;1.63;;;26.40;85.70;;;;;;5061718;28;20110;-82
2022/07/10 11:09:33;;;;;;;2.88;1.30;;;25.80;86.40;;;;;;5062690;28;20112;-80
2022/07/10 11:12:09;;;;;;;3.25;1.63;;;24.80;87.30;;;;;;5057810;28;20440;-82
2022/07/10 11:14:46;;;;;;;2.83;1.73;;;24.40;89.00;;;;;;5059645;28;20068;-82
2022/07/10 11:17:12;;;;;;;4.93;1.92;;;24.10;89.60;;;;;;5060717;28;20131;-82
2022/07/10 11:19:39;;;;;;;5.32;1.63;;;24.40;88.80;;;;;;5063064;28;20028;-81
2022/07/10 11:22:16;;;;;;;5.90;1.35;;;24.90;85.20;;;;;;5061576;28;20116;-81
2022/07/10 11:24:42;;;;;;;3.67;1.33;;;24.90;85.00;;;;;;5060142;28;20032;-81
2022/07/10 11:27:45;;;;;;;7.75;1.60;;;24.80;85.20;;;;;;5064173;28;20025;-83
2022/07/10 11:30:11;;;;;;;5.38;1.35;;;24.80;85.20;;;;;;5068794;28;20090;-82
2022/07/10 11:32:37;;;;;;;3.60;1.23;;;24.50;85.40;;;;;;5072272;28;20089;-83
2022/07/10 11:35:07;;;;;;;5.45;2.28;;;24.30;85.80;;;;;;5066501;28;20032;-83
2022/07/10 11:37:35;;;;;;;6.75;2.05;;;24.00;86.30;;;;;;5059202;28;20548;-82
2022/07/10 11:40:11;;;;;;;5.50;1.52;;;23.60;87.10;;;;;;5061710;28;20025;-83
2022/07/10 11:42:54;;;;;;;5.25;1.17;;;23.20;87.20;;;;;;5059130;28;20040;-82
2022/07/10 11:45:32;;;;;;;6.22;1.20;;;23.10;87.60;;;;;;5064519;28;20025;-84
2022/07/10 11:47:59;;;;;;;3.90;1.20;;;22.80;87.30;;;;;;5063055;28;20039;-80
2022/07/10 11:50:26;;;;;;;6.43;1.50;;;23.80;85.20;;;;;;5060075;28;20515;-84
2022/07/10 11:52:53;;;;;;;2.72;1.33;;;24.00;84.00;;;;;;5058397;28;20068;-83
2022/07/10 11:55:21;;;;;;;6.50;1.85;;;24.00;83.50;;;;;;5063431;28;20050;-80
2022/07/10 11:57:50;;;;;;;2.65;1.15;;;23.50;83.90;;;;;;5068548;28;20134;-80
2022/07/10 12:00:29;;;;;;;6.55;1.45;;;23.10;84.00;;;;;;5073960;28;20024;-80
2022/07/10 12:02:57;;;;;;;4.28;1.45;;;22.60;85.10;;;;;;5075552;28;20401;-78
2022/07/10 12:05:38;;;;;;;5.30;1.50;;;22.10;85.80;;;;;;5071578;28;20021;-79
2022/07/10 12:08:05;;;;;;;1.77;0.90;;;23.00;84.60;;;;;;5068939;28;20041;-77
2022/07/10 12:10:33;;;;;;;4.18;1.20;;;24.60;82.30;;;;;;5065823;28;20029;-78
2022/07/10 12:13:12;;;;;;;4.35;0.90;;;26.20;78.50;;;;;;5061705;28;20028;-78
2022/07/10 12:15:40;;;;;;;0.98;0.73;;;26.50;76.90;;;;;;5057677;28;20032;-79
2022/07/10 12:18:20;;;;;;;5.97;1.20;;;27.60;73.90;;;;;;5059414;28;20056;-79
2022/07/10 12:20:52;;;;;;;2.70;0.98;;;27.80;72.80;;;;;;5058102;28;20071;-78
2022/07/10 12:23:19;;;;;;;2.90;1.00;;;28.10;72.30;;;;;;5058470;28;20037;-78
2022/07/10 12:25:49;;;;;;;3.33;1.10;;;29.20;69.60;;;;;;5058517;28;20029;-79
2022/07/10 12:28:15;;;;;;;4.35;1.00;;;28.70;67.60;;;;;;5058734;28;20036;-79
2022/07/10 12:30:42;;;;;;;4.05;0.98;;;28.10;68.20;;;;;;5059911;28;20548;-78
2022/07/10 12:33:17;;;;;;;4.35;1.25;;;27.20;67.90;;;;;;5059123;28;20048;-80
2022/07/10 12:35:56;;;;;;;1.27;0.82;;;26.40;69.50;;;;;;5067150;28;20036;-78
2022/07/10 12:38:27;;;;;;;2.45;1.00;;;26.90;68.50;;;;;;5062081;28;20055;-77
2022/07/10 12:41:10;;;;;;;1.40;1.00;;;27.80;68.80;;;;;;5051746;28;20030;-79
2022/07/10 12:43:36;;;;;;;4.18;0.80;;;27.60;69.40;;;;;;5056751;28;20021;-82
2022/07/10 12:46:14;;;;;;;5.40;1.25;;;26.60;70.70;;;;;;5088906;28;20037;-79
2022/07/10 12:48:43;;;;;;;2.22;0.95;;;25.50;72.60;;;;;;5058288;28;20048;-79
2022/07/10 12:51:25;;;;;;;3.65;0.98;;;25.00;73.80;;;;;;5057116;28;20036;-81
2022/07/10 12:53:52;;;;;;;4.85;1.00;;;24.30;74.50;;;;;;5059744;28;20030;-80
2022/07/10 12:56:30;;;;;;;9.43;1.35;;;24.70;74.90;;;;;;5058840;28;20032;-77
2022/07/10 12:58:57;;;;;;;3.03;1.13;;;25.50;72.70;;;;;;5059180;28;20029;-79
2022/07/10 13:01:23;;;;;;;6.30;1.00;;;26.40;71.80;;;;;;5060540;28;20080;-78
2022/07/10 13:03:56;;;;;;;2.78;0.80;;;27.50;70.70;;;;;;5062223;28;20020;-79
2022/07/10 13:06:30;;;;;;;4.75;1.15;;;28.30;69.30;;;;;;5055403;28;20026;-78
2022/07/10 13:08:57;;;;;;;4.85;1.17;;;29.00;67.90;;;;;;5051013;28;20036;-79
2022/07/10 13:11:23;;;;;;;2.58;0.90;;;28.70;68.40;;;;;;5052256;28;20040;-78